sensor_id;sensor_type;location;lat;lon;timestamp;pressure;altitude;pressure_sealevel;temperature;humidity
79004;BME280;68369;51.050;17.018;2023-04-19T00:05:44;100739.93;;;11.02;70.95
79004;BME280;68369;51.050;17.018;2023-04-19T00:08:30;100744.11;;;11.03;71.05
79004;BME280;68369;51.050;17.018;2023-04-19T01:23:31;100680.95;;;9.92;71.26
79004;BME280;68369;51.050;17.018;2023-04-19T01:26:18;100668.77;;;9.85;71.13
79004;BME280;68369;51.050;17.018;2023-04-19T01:35:19;100673.56;;;9.73;70.87
79004;BME280;68369;51.050;17.018;2023-04-19T01:44:21;100662.87;;;9.63;70.83
79004;BME280;68369;51.050;17.018;2023-04-19T01:47:06;100660.86;;;9.60;70.87
79004;BME280;68369;51.050;17.018;2023-04-19T01:49:51;100657.13;;;9.57;70.52
79004;BME280;68369;51.050;17.018;2023-04-19T02:11:48;100650.20;;;9.16;68.01
79004;BME280;68369;51.050;17.018;2023-04-19T02:17:19;100644.73;;;9.13;68.62
79004;BME280;68369;51.050;17.018;2023-04-19T02:29:44;100636.66;;;9.13;67.34
79004;BME280;68369;51.050;17.018;2023-04-19T02:32:32;100635.03;;;9.10;67.34
79004;BME280;68369;51.050;17.018;2023-04-19T02:48:03;100628.73;;;8.82;65.02
79004;BME280;68369;51.050;17.018;2023-04-19T03:10:14;100604.63;;;8.41;63.92
79004;BME280;68369;51.050;17.018;2023-04-19T03:16:08;100598.09;;;8.31;63.54
79004;BME280;68369;51.050;17.018;2023-04-19T03:18:57;100596.15;;;8.25;63.15
79004;BME280;68369;51.050;17.018;2023-04-19T03:21:42;100594.52;;;8.21;63.17
79004;BME280;68369;51.050;17.018;2023-04-19T03:30:44;100589.96;;;8.09;62.46
79004;BME280;68369;51.050;17.018;2023-04-19T03:33:29;100590.77;;;8.05;62.11
79004;BME280;68369;51.050;17.018;2023-04-19T03:39:08;100583.23;;;8.00;61.97
79004;BME280;68369;51.050;17.018;2023-04-19T03:45:13;100580.48;;;7.99;62.60
79004;BME280;68369;51.050;17.018;2023-04-19T03:51:22;100579.48;;;7.97;62.73
79004;BME280;68369;51.050;17.018;2023-04-19T03:54:09;100576.61;;;7.94;62.69
79004;BME280;68369;51.050;17.018;2023-04-19T03:56:54;100579.09;;;7.92;62.63
79004;BME280;68369;51.050;17.018;2023-04-19T03:59:39;100583.47;;;7.91;62.81
79004;BME280;68369;51.050;17.018;2023-04-19T04:05:44;100584.70;;;7.97;62.37
79004;BME280;68369;51.050;17.018;2023-04-19T04:11:32;100587.30;;;7.98;62.18
79004;BME280;68369;51.050;17.018;2023-04-19T04:14:18;100588.95;;;7.95;62.02
79004;BME280;68369;51.050;17.018;2023-04-19T04:17:07;100587.30;;;7.92;61.79
79004;BME280;68369;51.050;17.018;2023-04-19T04:23:08;100593.02;;;7.87;61.51
79004;BME280;68369;51.050;17.018;2023-04-19T04:32:09;100598.53;;;7.69;63.90
79004;BME280;68369;51.050;17.018;2023-04-19T04:34:55;100600.56;;;7.58;64.89
79004;BME280;68369;51.050;17.018;2023-04-19T04:37:40;100602.55;;;7.48;65.90
79004;BME280;68369;51.050;17.018;2023-04-19T04:43:07;100613.83;;;7.36;66.73
79004;BME280;68369;51.050;17.018;2023-04-19T04:45:52;100612.54;;;7.31;67.18
79004;BME280;68369;51.050;17.018;2023-04-19T04:51:33;100606.52;;;7.14;68.14
79004;BME280;68369;51.050;17.018;2023-04-19T04:54:18;100604.70;;;7.01;68.67
79004;BME280;68369;51.050;17.018;2023-04-19T04:57:52;100605.52;;;6.89;69.25
79004;BME280;68369;51.050;17.018;2023-04-19T05:03:46;100617.36;;;6.64;70.59
79004;BME280;68369;51.050;17.018;2023-04-19T05:10:09;100612.55;;;6.53;71.37
79004;BME280;68369;51.050;17.018;2023-04-19T05:12:55;100614.10;;;6.53;71.79
79004;BME280;68369;51.050;17.018;2023-04-19T05:18:33;100613.54;;;6.56;72.22
79004;BME280;68369;51.050;17.018;2023-04-19T05:21:20;100614.02;;;6.58;72.29
79004;BME280;68369;51.050;17.018;2023-04-19T05:24:06;100610.88;;;6.58;72.37
79004;BME280;68369;51.050;17.018;2023-04-19T05:26:51;100603.42;;;6.57;72.45
79004;BME280;68369;51.050;17.018;2023-04-19T05:29:36;100604.83;;;6.57;72.28
79004;BME280;68369;51.050;17.018;2023-04-19T05:42:00;100591.67;;;6.61;71.20
79004;BME280;68369;51.050;17.018;2023-04-19T05:44:46;100589.84;;;6.58;71.25
79004;BME280;68369;51.050;17.018;2023-04-19T05:47:32;100589.91;;;6.54;71.15
79004;BME280;68369;51.050;17.018;2023-04-19T05:50:17;100586.65;;;6.52;71.50
79004;BME280;68369;51.050;17.018;2023-04-19T05:53:04;100580.92;;;6.52;71.25
79004;BME280;68369;51.050;17.018;2023-04-19T05:58:47;100575.55;;;6.51;71.73
79004;BME280;68369;51.050;17.018;2023-04-19T06:01:34;100573.01;;;6.57;71.60
79004;BME280;68369;51.050;17.018;2023-04-19T06:04:21;100572.90;;;6.61;71.39
79004;BME280;68369;51.050;17.018;2023-04-19T06:07:08;100576.67;;;6.71;70.86
79004;BME280;68369;51.050;17.018;2023-04-19T06:10:14;100577.02;;;6.79;71.08
79004;BME280;68369;51.050;17.018;2023-04-19T06:12:58;100581.95;;;6.84;70.77
79004;BME280;68369;51.050;17.018;2023-04-19T06:15:44;100585.72;;;6.87;70.53
79004;BME280;68369;51.050;17.018;2023-04-19T06:18:30;100588.66;;;6.88;70.11
79004;BME280;68369;51.050;17.018;2023-04-19T06:21:15;100592.61;;;6.90;69.98
79004;BME280;68369;51.050;17.018;2023-04-19T06:24:00;100597.28;;;6.91;70.14
79004;BME280;68369;51.050;17.018;2023-04-19T06:26:45;100596.73;;;6.92;70.47
79004;BME280;68369;51.050;17.018;2023-04-19T06:29:33;100598.51;;;6.91;70.03
79004;BME280;68369;51.050;17.018;2023-04-19T06:32:19;100600.41;;;6.92;70.08
79004;BME280;68369;51.050;17.018;2023-04-19T06:41:36;100597.20;;;7.17;69.35
79004;BME280;68369;51.050;17.018;2023-04-19T06:51:08;100591.92;;;7.55;67.92
79004;BME280;68369;51.050;17.018;2023-04-19T06:53:53;100588.56;;;7.64;67.82
79004;BME280;68369;51.050;17.018;2023-04-19T07:02:45;100583.67;;;7.71;67.17
79004;BME280;68369;51.050;17.018;2023-04-19T07:05:31;100585.67;;;7.68;66.95
79004;BME280;68369;51.050;17.018;2023-04-19T07:11:51;100593.34;;;7.68;67.06
79004;BME280;68369;51.050;17.018;2023-04-19T07:14:36;100596.05;;;7.71;66.88
79004;BME280;68369;51.050;17.018;2023-04-19T07:17:22;100592.94;;;7.77;66.31
79004;BME280;68369;51.050;17.018;2023-04-19T07:20:07;100586.67;;;7.83;66.56
79004;BME280;68369;51.050;17.018;2023-04-19T07:22:53;100578.90;;;7.93;66.36
79004;BME280;68369;51.050;17.018;2023-04-19T07:25:39;100578.29;;;8.09;65.90
79004;BME280;68369;51.050;17.018;2023-04-19T07:37:56;100562.61;;;10.10;61.61
79004;BME280;68369;51.050;17.018;2023-04-19T07:43:38;100561.33;;;10.59;60.01
79004;BME280;68369;51.050;17.018;2023-04-19T07:58:42;100549.25;;;10.64;59.71
79004;BME280;68369;51.050;17.018;2023-04-19T08:08:00;100556.64;;;11.03;58.96
79004;BME280;68369;51.050;17.018;2023-04-19T08:10:46;100552.17;;;11.05;58.29
79004;BME280;68369;51.050;17.018;2023-04-19T08:13:33;100566.38;;;11.14;57.63
79004;BME280;68369;51.050;17.018;2023-04-19T08:16:18;100569.92;;;11.17;57.18
79004;BME280;68369;51.050;17.018;2023-04-19T08:22:59;100566.08;;;10.95;56.27
79004;BME280;68369;51.050;17.018;2023-04-19T08:25:55;100567.91;;;10.79;56.28
79004;BME280;68369;51.050;17.018;2023-04-19T08:28:40;100559.60;;;10.77;56.41
79004;BME280;68369;51.050;17.018;2023-04-19T08:31:26;100560.69;;;10.72;56.52
79004;BME280;68369;51.050;17.018;2023-04-19T08:34:11;100551.91;;;10.63;57.09
79004;BME280;68369;51.050;17.018;2023-04-19T08:36:57;100540.86;;;10.59;56.95
79004;BME280;68369;51.050;17.018;2023-04-19T08:39:49;100547.98;;;10.56;57.29
79004;BME280;68369;51.050;17.018;2023-04-19T08:42:36;100551.79;;;10.48;57.25
79004;BME280;68369;51.050;17.018;2023-04-19T08:45:39;100552.92;;;10.36;57.34
79004;BME280;68369;51.050;17.018;2023-04-19T08:48:51;100550.98;;;10.22;57.69
79004;BME280;68369;51.050;17.018;2023-04-19T08:51:37;100553.89;;;10.10;57.75
79004;BME280;68369;51.050;17.018;2023-04-19T08:54:24;100549.18;;;9.99;57.90
79004;BME280;68369;51.050;17.018;2023-04-19T09:03:17;100551.84;;;9.44;58.22
79004;BME280;68369;51.050;17.018;2023-04-19T09:09:17;100552.45;;;9.09;59.53
79004;BME280;68369;51.050;17.018;2023-04-19T09:12:16;100551.66;;;8.96;59.59
79004;BME280;68369;51.050;17.018;2023-04-19T09:15:03;100550.21;;;8.80;59.86
79004;BME280;68369;51.050;17.018;2023-04-19T09:18:03;100550.50;;;8.71;60.13
79004;BME280;68369;51.050;17.018;2023-04-19T09:23:51;100538.08;;;8.67;61.19
79004;BME280;68369;51.050;17.018;2023-04-19T09:27:11;100539.55;;;8.81;61.16
79004;BME280;68369;51.050;17.018;2023-04-19T09:30:00;100537.95;;;8.99;60.97
79004;BME280;68369;51.050;17.018;2023-04-19T09:32:46;100535.27;;;9.17;60.54
79004;BME280;68369;51.050;17.018;2023-04-19T09:35:40;100536.89;;;9.26;60.58
79004;BME280;68369;51.050;17.018;2023-04-19T09:38:26;100534.58;;;9.27;60.35
79004;BME280;68369;51.050;17.018;2023-04-19T09:41:11;100538.20;;;9.28;60.21
79004;BME280;68369;51.050;17.018;2023-04-19T09:44:08;100537.01;;;9.27;60.39
79004;BME280;68369;51.050;17.018;2023-04-19T09:47:26;100536.39;;;9.29;60.90
79004;BME280;68369;51.050;17.018;2023-04-19T09:50:13;100541.48;;;9.24;60.19
79004;BME280;68369;51.050;17.018;2023-04-19T09:53:10;100534.81;;;9.14;60.18
79004;BME280;68369;51.050;17.018;2023-04-19T09:58:49;100533.02;;;9.05;60.79
79004;BME280;68369;51.050;17.018;2023-04-19T10:01:55;100532.09;;;8.97;60.63
79004;BME280;68369;51.050;17.018;2023-04-19T10:04:42;100539.55;;;8.87;60.80
79004;BME280;68369;51.050;17.018;2023-04-19T10:07:51;100542.71;;;8.81;60.85
79004;BME280;68369;51.050;17.018;2023-04-19T10:13:32;100545.30;;;8.75;61.52
79004;BME280;68369;51.050;17.018;2023-04-19T10:16:19;100549.56;;;8.74;61.63
79004;BME280;68369;51.050;17.018;2023-04-19T10:19:08;100546.86;;;8.70;61.73
79004;BME280;68369;51.050;17.018;2023-04-19T10:21:55;100544.93;;;8.65;61.80
79004;BME280;68369;51.050;17.018;2023-04-19T10:25:07;100545.07;;;8.61;61.96
79004;BME280;68369;51.050;17.018;2023-04-19T10:27:53;100537.37;;;8.56;62.24
79004;BME280;68369;51.050;17.018;2023-04-19T10:30:52;100531.59;;;8.51;62.16
79004;BME280;68369;51.050;17.018;2023-04-19T10:33:39;100531.21;;;8.52;62.48
79004;BME280;68369;51.050;17.018;2023-04-19T10:36:26;100528.55;;;8.59;62.36
79004;BME280;68369;51.050;17.018;2023-04-19T10:39:41;100530.22;;;8.67;62.21
79004;BME280;68369;51.050;17.018;2023-04-19T10:48:59;100523.91;;;8.95;61.97
79004;BME280;68369;51.050;17.018;2023-04-19T10:51:49;100517.73;;;9.02;61.99
79004;BME280;68369;51.050;17.018;2023-04-19T10:57:17;100514.63;;;9.23;62.23
79004;BME280;68369;51.050;17.018;2023-04-19T11:00:19;100514.71;;;9.35;62.51
79004;BME280;68369;51.050;17.018;2023-04-19T11:06:29;100510.30;;;9.47;61.54
79004;BME280;68369;51.050;17.018;2023-04-19T11:12:12;100514.54;;;9.41;61.23
79004;BME280;68369;51.050;17.018;2023-04-19T11:14:58;100512.55;;;9.33;61.21
79004;BME280;68369;51.050;17.018;2023-04-19T11:17:49;100512.55;;;9.27;61.67
79004;BME280;68369;51.050;17.018;2023-04-19T11:20:53;100508.38;;;9.21;62.17
79004;BME280;68369;51.050;17.018;2023-04-19T11:23:39;100508.42;;;9.15;62.27
79004;BME280;68369;51.050;17.018;2023-04-19T11:26:25;100505.98;;;9.09;61.98
79004;BME280;68369;51.050;17.018;2023-04-19T11:29:11;100503.60;;;9.02;62.29
79004;BME280;68369;51.050;17.018;2023-04-19T11:31:59;100499.48;;;8.95;62.22
79004;BME280;68369;51.050;17.018;2023-04-19T11:34:44;100505.59;;;8.90;62.60
79004;BME280;68369;51.050;17.018;2023-04-19T11:37:36;100505.14;;;8.87;62.49
79004;BME280;68369;51.050;17.018;2023-04-19T11:40:23;100508.67;;;8.86;62.67
79004;BME280;68369;51.050;17.018;2023-04-19T11:43:10;100514.27;;;8.85;62.63
79004;BME280;68369;51.050;17.018;2023-04-19T11:46:03;100511.80;;;8.81;62.76
79004;BME280;68369;51.050;17.018;2023-04-19T11:52:25;100515.50;;;8.69;63.33
79004;BME280;68369;51.050;17.018;2023-04-19T11:55:20;100519.73;;;8.67;63.66
79004;BME280;68369;51.050;17.018;2023-04-19T11:58:06;100524.80;;;8.61;63.73
79004;BME280;68369;51.050;17.018;2023-04-19T12:01:06;100520.14;;;8.54;64.27
79004;BME280;68369;51.050;17.018;2023-04-19T12:03:53;100525.02;;;8.48;64.53
79004;BME280;68369;51.050;17.018;2023-04-19T12:06:39;100524.95;;;8.39;64.71
79004;BME280;68369;51.050;17.018;2023-04-19T12:09:25;100524.14;;;8.30;65.03
79004;BME280;68369;51.050;17.018;2023-04-19T12:12:10;100521.23;;;8.23;65.37
79004;BME280;68369;51.050;17.018;2023-04-19T12:14:55;100521.60;;;8.16;65.39
79004;BME280;68369;51.050;17.018;2023-04-19T12:17:58;100522.44;;;8.11;65.80
79004;BME280;68369;51.050;17.018;2023-04-19T12:20:46;100516.35;;;8.10;65.89
79004;BME280;68369;51.050;17.018;2023-04-19T12:26:26;100516.25;;;8.14;66.21
79004;BME280;68369;51.050;17.018;2023-04-19T12:29:13;100517.81;;;8.14;66.30
79004;BME280;68369;51.050;17.018;2023-04-19T12:32:00;100514.26;;;8.10;66.46
79004;BME280;68369;51.050;17.018;2023-04-19T12:34:46;100515.04;;;8.07;66.84
79004;BME280;68369;51.050;17.018;2023-04-19T12:37:31;100514.44;;;8.04;67.06
79004;BME280;68369;51.050;17.018;2023-04-19T12:40:16;100516.34;;;7.99;67.33
79004;BME280;68369;51.050;17.018;2023-04-19T12:43:02;100515.24;;;7.94;67.01
79004;BME280;68369;51.050;17.018;2023-04-19T12:45:47;100514.30;;;7.90;67.51
79004;BME280;68369;51.050;17.018;2023-04-19T12:48:33;100518.27;;;7.86;67.36
79004;BME280;68369;51.050;17.018;2023-04-19T12:51:18;100513.45;;;7.83;67.47
79004;BME280;68369;51.050;17.018;2023-04-19T12:54:03;100511.94;;;7.82;67.38
79004;BME280;68369;51.050;17.018;2023-04-19T12:56:48;100511.59;;;7.82;67.81
79004;BME280;68369;51.050;17.018;2023-04-19T12:59:34;100512.80;;;7.82;67.91
79004;BME280;68369;51.050;17.018;2023-04-19T13:02:19;100513.02;;;7.80;67.67
79004;BME280;68369;51.050;17.018;2023-04-19T13:05:05;100516.05;;;7.78;67.93
79004;BME280;68369;51.050;17.018;2023-04-19T13:07:51;100515.64;;;7.74;67.74
79004;BME280;68369;51.050;17.018;2023-04-19T13:10:38;100515.75;;;7.70;68.06
79004;BME280;68369;51.050;17.018;2023-04-19T13:13:28;100509.96;;;7.64;67.97
79004;BME280;68369;51.050;17.018;2023-04-19T13:16:15;100509.11;;;7.57;67.99
79004;BME280;68369;51.050;17.018;2023-04-19T13:19:02;100513.62;;;7.52;67.58
79004;BME280;68369;51.050;17.018;2023-04-19T13:21:49;100514.24;;;7.48;68.08
79004;BME280;68369;51.050;17.018;2023-04-19T13:24:34;100514.94;;;7.48;68.16
79004;BME280;68369;51.050;17.018;2023-04-19T13:27:19;100515.91;;;7.51;68.04
79004;BME280;68369;51.050;17.018;2023-04-19T13:30:05;100514.21;;;7.55;68.14
79004;BME280;68369;51.050;17.018;2023-04-19T13:32:51;100516.91;;;7.59;68.10
79004;BME280;68369;51.050;17.018;2023-04-19T13:35:36;100512.67;;;7.60;67.92
79004;BME280;68369;51.050;17.018;2023-04-19T13:38:21;100512.98;;;7.62;67.58
79004;BME280;68369;51.050;17.018;2023-04-19T13:41:07;100512.77;;;7.64;67.78
79004;BME280;68369;51.050;17.018;2023-04-19T13:43:52;100518.97;;;7.67;67.84
79004;BME280;68369;51.050;17.018;2023-04-19T13:46:37;100518.61;;;7.67;67.51
79004;BME280;68369;51.050;17.018;2023-04-19T13:49:23;100520.73;;;7.66;67.47
79004;BME280;68369;51.050;17.018;2023-04-19T13:52:08;100517.52;;;7.62;67.75
79004;BME280;68369;51.050;17.018;2023-04-19T13:54:54;100516.02;;;7.59;67.54
79004;BME280;68369;51.050;17.018;2023-04-19T13:57:39;100512.80;;;7.56;67.42
79004;BME280;68369;51.050;17.018;2023-04-19T14:00:25;100511.05;;;7.57;67.32
79004;BME280;68369;51.050;17.018;2023-04-19T14:03:10;100514.05;;;7.61;67.77
79004;BME280;68369;51.050;17.018;2023-04-19T14:05:56;100513.20;;;7.68;67.75
79004;BME280;68369;51.050;17.018;2023-04-19T14:08:42;100516.49;;;7.74;67.65
79004;BME280;68369;51.050;17.018;2023-04-19T14:11:27;100513.27;;;7.78;67.76
79004;BME280;68369;51.050;17.018;2023-04-19T14:14:13;100511.11;;;7.79;67.32
79004;BME280;68369;51.050;17.018;2023-04-19T14:16:58;100508.46;;;7.81;67.38
79004;BME280;68369;51.050;17.018;2023-04-19T14:19:43;100508.02;;;7.85;67.64
79004;BME280;68369;51.050;17.018;2023-04-19T14:22:28;100505.27;;;7.89;67.43
79004;BME280;68369;51.050;17.018;2023-04-19T14:25:15;100503.45;;;7.92;67.25
79004;BME280;68369;51.050;17.018;2023-04-19T14:28:02;100499.53;;;7.95;67.08
79004;BME280;68369;51.050;17.018;2023-04-19T14:30:47;100494.36;;;7.98;67.11
79004;BME280;68369;51.050;17.018;2023-04-19T14:33:32;100496.67;;;8.03;67.03
79004;BME280;68369;51.050;17.018;2023-04-19T14:36:18;100498.77;;;8.09;67.28
79004;BME280;68369;51.050;17.018;2023-04-19T14:39:06;100502.49;;;8.19;66.83
79004;BME280;68369;51.050;17.018;2023-04-19T14:41:52;100503.86;;;8.32;66.41
79004;BME280;68369;51.050;17.018;2023-04-19T14:48:08;100505.27;;;8.49;66.23
79004;BME280;68369;51.050;17.018;2023-04-19T14:50:54;100510.94;;;8.58;65.51
79004;BME280;68369;51.050;17.018;2023-04-19T14:53:41;100513.23;;;8.57;65.50
79004;BME280;68369;51.050;17.018;2023-04-19T14:56:26;100515.39;;;8.56;65.75
79004;BME280;68369;51.050;17.018;2023-04-19T15:02:26;100501.24;;;8.56;65.24
79004;BME280;68369;51.050;17.018;2023-04-19T15:05:12;100499.39;;;8.65;65.14
79004;BME280;68369;51.050;17.018;2023-04-19T15:07:58;100499.27;;;8.91;65.25
79004;BME280;68369;51.050;17.018;2023-04-19T15:10:43;100499.13;;;9.06;64.79
79004;BME280;68369;51.050;17.018;2023-04-19T15:13:28;100498.95;;;9.11;64.60
79004;BME280;68369;51.050;17.018;2023-04-19T15:16:14;100501.45;;;9.15;64.68
79004;BME280;68369;51.050;17.018;2023-04-19T15:18:59;100497.00;;;9.27;64.00
79004;BME280;68369;51.050;17.018;2023-04-19T15:22:05;100491.66;;;9.40;63.96
79004;BME280;68369;51.050;17.018;2023-04-19T15:24:52;100491.48;;;9.60;63.07
79004;BME280;68369;51.050;17.018;2023-04-19T15:27:37;100494.42;;;9.76;62.91
79004;BME280;68369;51.050;17.018;2023-04-19T15:30:22;100491.56;;;9.83;62.33
79004;BME280;68369;51.050;17.018;2023-04-19T15:33:07;100495.56;;;9.88;62.20
79004;BME280;68369;51.050;17.018;2023-04-19T15:35:53;100492.81;;;9.96;62.25
79004;BME280;68369;51.050;17.018;2023-04-19T15:38:39;100492.58;;;10.03;61.88
79004;BME280;68369;51.050;17.018;2023-04-19T15:41:26;100497.60;;;10.13;61.70
79004;BME280;68369;51.050;17.018;2023-04-19T15:44:12;100497.52;;;10.25;61.36
79004;BME280;68369;51.050;17.018;2023-04-19T15:50:13;100501.81;;;10.22;60.66
79004;BME280;68369;51.050;17.018;2023-04-19T15:56:09;100504.10;;;9.94;60.35
79004;BME280;68369;51.050;17.018;2023-04-19T15:58:56;100501.33;;;9.78;60.45
79004;BME280;68369;51.050;17.018;2023-04-19T16:01:41;100504.44;;;9.65;60.58
79004;BME280;68369;51.050;17.018;2023-04-19T16:04:27;100499.80;;;9.52;60.86
79004;BME280;68369;51.050;17.018;2023-04-19T16:07:13;100495.91;;;9.34;60.99
79004;BME280;68369;51.050;17.018;2023-04-19T16:09:59;100506.58;;;9.29;60.92
79004;BME280;68369;51.050;17.018;2023-04-19T16:12:44;100507.45;;;9.18;61.66
79004;BME280;68369;51.050;17.018;2023-04-19T16:15:30;100507.56;;;9.09;61.48
79004;BME280;68369;51.050;17.018;2023-04-19T16:18:16;100506.48;;;9.00;61.98
79004;BME280;68369;51.050;17.018;2023-04-19T16:21:02;100506.88;;;8.92;61.76
79004;BME280;68369;51.050;17.018;2023-04-19T16:23:47;100514.59;;;8.86;61.96
79004;BME280;68369;51.050;17.018;2023-04-19T16:26:32;100514.42;;;8.81;62.27
79004;BME280;68369;51.050;17.018;2023-04-19T16:29:18;100521.11;;;8.79;62.33
79004;BME280;68369;51.050;17.018;2023-04-19T16:32:04;100515.80;;;8.76;62.59
79004;BME280;68369;51.050;17.018;2023-04-19T16:34:49;100509.14;;;8.65;61.65
79004;BME280;68369;51.050;17.018;2023-04-19T16:37:35;100510.77;;;8.53;62.30
79004;BME280;68369;51.050;17.018;2023-04-19T16:40:21;100511.83;;;8.46;63.09
79004;BME280;68369;51.050;17.018;2023-04-19T16:43:06;100513.40;;;8.40;63.17
79004;BME280;68369;51.050;17.018;2023-04-19T16:45:51;100510.21;;;8.35;63.41
79004;BME280;68369;51.050;17.018;2023-04-19T16:48:37;100515.98;;;8.28;63.60
79004;BME280;68369;51.050;17.018;2023-04-19T16:51:22;100521.05;;;8.22;63.98
79004;BME280;68369;51.050;17.018;2023-04-19T16:54:07;100522.61;;;8.17;63.66
79004;BME280;68369;51.050;17.018;2023-04-19T16:56:53;100528.38;;;8.10;64.16
79004;BME280;68369;51.050;17.018;2023-04-19T16:59:38;100533.09;;;8.04;64.26
79004;BME280;68369;51.050;17.018;2023-04-19T17:02:23;100535.70;;;7.98;64.21
79004;BME280;68369;51.050;17.018;2023-04-19T17:05:09;100534.67;;;7.91;64.29
79004;BME280;68369;51.050;17.018;2023-04-19T17:07:57;100533.27;;;7.85;64.74
79004;BME280;68369;51.050;17.018;2023-04-19T17:10:44;100536.10;;;7.84;64.79
79004;BME280;68369;51.050;17.018;2023-04-19T17:13:29;100533.15;;;7.84;64.74
79004;BME280;68369;51.050;17.018;2023-04-19T17:16:14;100532.09;;;7.84;64.45
79004;BME280;68369;51.050;17.018;2023-04-19T17:19:00;100532.97;;;7.84;64.75
79004;BME280;68369;51.050;17.018;2023-04-19T17:21:45;100533.72;;;7.82;64.72
79004;BME280;68369;51.050;17.018;2023-04-19T17:24:33;100536.36;;;7.80;64.89
79004;BME280;68369;51.050;17.018;2023-04-19T17:27:19;100532.77;;;7.78;65.07
79004;BME280;68369;51.050;17.018;2023-04-19T17:30:05;100530.74;;;7.76;64.70
79004;BME280;68369;51.050;17.018;2023-04-19T17:32:51;100531.54;;;7.72;64.67
79004;BME280;68369;51.050;17.018;2023-04-19T17:35:36;100530.41;;;7.68;64.50
79004;BME280;68369;51.050;17.018;2023-04-19T17:38:21;100535.75;;;7.65;64.70
79004;BME280;68369;51.050;17.018;2023-04-19T17:41:07;100541.20;;;7.62;64.83
79004;BME280;68369;51.050;17.018;2023-04-19T17:43:59;100541.10;;;7.60;64.64
79004;BME280;68369;51.050;17.018;2023-04-19T17:46:44;100544.67;;;7.57;64.83
79004;BME280;68369;51.050;17.018;2023-04-19T17:49:30;100542.84;;;7.53;65.03
79004;BME280;68369;51.050;17.018;2023-04-19T17:52:15;100549.86;;;7.51;65.27
79004;BME280;68369;51.050;17.018;2023-04-19T17:55:00;100553.90;;;7.50;65.35
79004;BME280;68369;51.050;17.018;2023-04-19T17:57:47;100555.80;;;7.51;64.78
79004;BME280;68369;51.050;17.018;2023-04-19T18:00:34;100554.71;;;7.52;64.62
79004;BME280;68369;51.050;17.018;2023-04-19T18:03:20;100558.45;;;7.56;64.34
79004;BME280;68369;51.050;17.018;2023-04-19T18:06:07;100561.54;;;7.58;64.78
79004;BME280;68369;51.050;17.018;2023-04-19T18:08:53;100559.77;;;7.58;64.55
79004;BME280;68369;51.050;17.018;2023-04-19T18:14:17;100569.27;;;7.56;64.79
79004;BME280;68369;51.050;17.018;2023-04-19T18:17:04;100572.09;;;7.54;64.67
79004;BME280;68369;51.050;17.018;2023-04-19T18:19:50;100575.11;;;7.52;64.48
79004;BME280;68369;51.050;17.018;2023-04-19T18:22:36;100579.36;;;7.49;64.76
79004;BME280;68369;51.050;17.018;2023-04-19T18:25:21;100578.77;;;7.46;65.00
79004;BME280;68369;51.050;17.018;2023-04-19T18:28:06;100580.55;;;7.43;65.02
79004;BME280;68369;51.050;17.018;2023-04-19T18:30:51;100582.19;;;7.40;65.14
79004;BME280;68369;51.050;17.018;2023-04-19T18:33:37;100585.41;;;7.36;65.37
79004;BME280;68369;51.050;17.018;2023-04-19T18:36:22;100587.39;;;7.33;65.54
79004;BME280;68369;51.050;17.018;2023-04-19T18:39:08;100589.21;;;7.31;65.43
79004;BME280;68369;51.050;17.018;2023-04-19T18:41:54;100593.26;;;7.29;65.82
79004;BME280;68369;51.050;17.018;2023-04-19T18:44:42;100594.62;;;7.31;65.87
79004;BME280;68369;51.050;17.018;2023-04-19T18:47:38;100597.30;;;7.34;66.14
79004;BME280;68369;51.050;17.018;2023-04-19T18:53:20;100591.89;;;7.42;66.16
79004;BME280;68369;51.050;17.018;2023-04-19T18:56:07;100594.99;;;7.44;66.45
79004;BME280;68369;51.050;17.018;2023-04-19T18:58:57;100589.92;;;7.44;66.60
79004;BME280;68369;51.050;17.018;2023-04-19T19:01:43;100591.68;;;7.44;66.58
79004;BME280;68369;51.050;17.018;2023-04-19T19:04:30;100586.66;;;7.43;66.81
79004;BME280;68369;51.050;17.018;2023-04-19T19:07:36;100589.14;;;7.40;66.35
79004;BME280;68369;51.050;17.018;2023-04-19T19:10:22;100591.98;;;7.39;66.55
79004;BME280;68369;51.050;17.018;2023-04-19T19:13:27;100588.77;;;7.35;66.65
79004;BME280;68369;51.050;17.018;2023-04-19T19:16:12;100594.95;;;7.31;66.72
79004;BME280;68369;51.050;17.018;2023-04-19T19:18:58;100595.40;;;7.27;66.86
79004;BME280;68369;51.050;17.018;2023-04-19T19:21:43;100596.21;;;7.23;66.66
79004;BME280;68369;51.050;17.018;2023-04-19T19:24:31;100600.59;;;7.21;66.67
79004;BME280;68369;51.050;17.018;2023-04-19T19:27:16;100600.77;;;7.21;66.95
79004;BME280;68369;51.050;17.018;2023-04-19T19:30:05;100595.05;;;7.20;66.82
79004;BME280;68369;51.050;17.018;2023-04-19T19:32:51;100599.59;;;7.20;66.83
79004;BME280;68369;51.050;17.018;2023-04-19T19:35:39;100602.02;;;7.19;66.94
79004;BME280;68369;51.050;17.018;2023-04-19T19:38:24;100606.08;;;7.17;66.76
79004;BME280;68369;51.050;17.018;2023-04-19T19:41:10;100605.45;;;7.15;67.28
79004;BME280;68369;51.050;17.018;2023-04-19T19:44:15;100609.52;;;7.12;67.16
79004;BME280;68369;51.050;17.018;2023-04-19T19:47:00;100602.64;;;7.08;67.05
79004;BME280;68369;51.050;17.018;2023-04-19T19:49:46;100605.34;;;7.04;67.33
79004;BME280;68369;51.050;17.018;2023-04-19T19:52:51;100614.50;;;7.00;67.40
79004;BME280;68369;51.050;17.018;2023-04-19T19:55:36;100611.41;;;6.97;67.43
79004;BME280;68369;51.050;17.018;2023-04-19T19:58:22;100611.30;;;6.95;67.43
79004;BME280;68369;51.050;17.018;2023-04-19T20:01:27;100614.05;;;6.96;67.65
79004;BME280;68369;51.050;17.018;2023-04-19T20:04:13;100610.16;;;6.98;67.64
79004;BME280;68369;51.050;17.018;2023-04-19T20:06:59;100614.95;;;7.02;67.38
79004;BME280;68369;51.050;17.018;2023-04-19T20:10:10;100616.82;;;7.05;67.67